createdAt,value
2019-01-17T06:47:41.983Z,6.48
2019-01-17T06:48:41.953Z,6.40
2019-01-17T06:49:41.939Z,6.37
2019-01-17T06:50:41.929Z,6.37
2019-01-17T06:51:41.943Z,6.28
2019-01-17T06:52:41.913Z,6.34
2019-01-17T06:53:41.908Z,6.25
2019-01-17T06:54:41.886Z,6.37
2019-01-17T06:55:41.876Z,6.40
2019-01-17T06:56:41.906Z,6.34
2019-01-17T06:57:41.858Z,6.37
2019-01-17T06:58:41.854Z,6.44
2019-01-17T06:59:41.840Z,6.40
2019-01-17T07:00:41.828Z,6.38
2019-01-17T07:01:41.825Z,6.46
2019-01-17T07:02:41.839Z,6.48
2019-01-17T07:03:41.796Z,6.44
2019-01-17T07:04:41.804Z,6.43
2019-01-17T07:05:41.777Z,6.40
2019-01-17T07:06:41.766Z,6.41
2019-01-17T07:07:41.775Z,6.40
2019-01-17T07:08:41.750Z,6.46
2019-01-17T07:09:41.735Z,6.44
2019-01-17T07:10:41.726Z,6.43
2019-01-17T07:11:41.712Z,6.43
2019-01-17T07:12:41.727Z,6.43
2019-01-17T07:13:41.753Z,6.48
2019-01-17T07:14:41.682Z,6.37
2019-01-17T07:15:41.679Z,6.48
2019-01-17T07:16:41.666Z,6.43
2019-01-17T07:17:41.671Z,6.48
2019-01-17T07:18:41.643Z,6.52
2019-01-17T07:19:41.632Z,6.56
2019-01-17T07:20:41.620Z,6.51
2019-01-17T07:21:50.155Z,6.55
2019-01-17T07:22:41.625Z,6.58
2019-01-17T07:23:41.589Z,6.51
2019-01-17T07:24:41.577Z,6.56
2019-01-17T07:25:41.568Z,6.52
2019-01-17T07:26:41.559Z,6.43
2019-01-17T07:27:41.569Z,6.40
2019-01-17T07:28:41.544Z,6.41
2019-01-17T07:29:41.526Z,6.43
2019-01-17T07:30:41.515Z,6.46
2019-01-17T07:31:41.508Z,6.40
2019-01-17T07:32:41.522Z,6.40
2019-01-17T07:33:41.486Z,6.38
2019-01-17T07:34:41.481Z,6.38
2019-01-17T07:35:41.464Z,6.22
2019-01-17T07:36:41.453Z,6.21
2019-01-17T07:37:41.477Z,6.17
2019-01-17T07:38:41.434Z,6.25
2019-01-17T07:39:41.423Z,6.21
2019-01-17T07:40:41.425Z,6.18
2019-01-17T07:41:41.402Z,6.37
2019-01-17T07:42:41.416Z,6.17
2019-01-17T07:43:41.389Z,6.33
2019-01-17T07:44:41.374Z,6.30
2019-01-17T07:45:41.368Z,6.19
2019-01-17T07:46:41.361Z,6.28
2019-01-17T07:47:41.386Z,6.19
2019-01-17T07:48:41.348Z,6.22
2019-01-17T07:49:41.321Z,6.21
2019-01-17T07:50:41.309Z,6.12
2019-01-17T07:51:41.301Z,6.17
2019-01-17T07:52:41.326Z,6.12
2019-01-17T07:53:41.324Z,6.14
2019-01-17T07:54:41.276Z,6.18
2019-01-17T07:55:47.461Z,6.08
2019-01-17T07:56:42.248Z,6.11
2019-01-17T07:57:41.240Z,6.17
2019-01-17T07:58:41.257Z,6.12
2019-01-17T07:59:41.218Z,6.15
2019-01-17T08:00:41.214Z,6.14
2019-01-17T08:01:41.198Z,6.15
2019-01-17T08:02:41.189Z,6.08
2019-01-17T08:03:41.196Z,6.04
2019-01-17T08:04:41.175Z,6.08
2019-01-17T08:05:41.182Z,6.03
2019-01-17T08:06:41.151Z,6.12
2019-01-17T08:07:41.135Z,6.17
2019-01-17T08:08:41.143Z,6.14
2019-01-17T08:09:41.116Z,6.12
2019-01-17T08:10:41.105Z,6.14
2019-01-17T08:11:41.115Z,6.11
2019-01-17T08:12:41.112Z,6.12
2019-01-17T08:13:41.096Z,6.17
2019-01-17T08:14:41.064Z,6.21
2019-01-17T08:15:41.054Z,6.25
2019-01-17T08:16:41.055Z,6.34
2019-01-17T08:17:41.033Z,6.31
2019-01-17T08:18:41.069Z,6.40
2019-01-17T08:19:41.041Z,6.40
2019-01-17T08:20:41.017Z,6.41
2019-01-17T08:21:40.996Z,6.44
2019-01-17T08:22:40.984Z,6.54
2019-01-17T08:23:41.016Z,6.56
2019-01-17T08:24:40.966Z,6.71
2019-01-17T08:25:40.955Z,6.74
2019-01-17T08:26:41.041Z,6.69
2019-01-17T08:27:40.992Z,6.74
2019-01-17T08:28:40.939Z,6.76
2019-01-17T08:29:40.936Z,6.85
2019-01-17T08:30:40.906Z,6.76
2019-01-17T08:31:40.905Z,6.69
2019-01-17T08:32:40.881Z,6.77
2019-01-17T08:33:40.875Z,6.85
2019-01-17T08:34:40.881Z,6.80
2019-01-17T08:35:40.852Z,7.07
2019-01-17T08:36:40.846Z,7.06
2019-01-17T08:37:40.848Z,6.97
2019-01-17T08:38:40.826Z,6.87
2019-01-17T08:39:40.826Z,6.91
2019-01-17T08:40:40.801Z,7.06
2019-01-17T08:41:40.794Z,6.95
2019-01-17T08:42:40.780Z,6.94
2019-01-17T08:43:40.767Z,6.74
2019-01-17T08:44:40.818Z,6.74
2019-01-17T08:45:40.753Z,6.77
2019-01-17T08:46:40.739Z,6.67
2019-01-17T08:47:40.731Z,6.71
2019-01-17T08:48:40.718Z,6.71
2019-01-17T08:49:40.727Z,6.70
2019-01-17T08:50:40.709Z,6.67
2019-01-17T08:51:40.689Z,6.69
2019-01-17T08:52:40.678Z,6.55
2019-01-17T08:53:40.671Z,6.55
2019-01-17T08:54:40.687Z,6.55
2019-01-17T08:55:40.648Z,6.61
2019-01-17T08:56:40.649Z,6.61
2019-01-17T08:57:40.639Z,6.59
2019-01-17T08:58:40.614Z,6.52
2019-01-17T08:59:40.646Z,6.55
2019-01-17T09:00:40.603Z,6.55
2019-01-17T09:01:40.587Z,6.59
2019-01-17T09:02:40.582Z,6.55
2019-01-17T09:03:40.568Z,6.69
2019-01-17T09:04:40.566Z,6.58
2019-01-17T09:05:40.581Z,6.69
2019-01-17T09:06:40.536Z,6.79
2019-01-17T09:07:40.531Z,6.73
2019-01-17T09:08:40.524Z,6.69
2019-01-17T09:09:40.509Z,6.70
2019-01-17T09:10:40.514Z,6.74
2019-01-17T09:11:40.482Z,6.73
2019-01-17T09:12:40.486Z,6.67
2019-01-17T09:13:40.470Z,6.71
2019-01-17T09:14:40.464Z,6.64
2019-01-17T09:15:40.469Z,6.70
2019-01-17T09:16:40.441Z,6.69
2019-01-17T09:17:40.424Z,6.66
2019-01-17T09:18:40.415Z,6.71
2019-01-17T09:19:40.403Z,6.67
2019-01-17T09:20:40.420Z,6.77
2019-01-17T09:21:40.382Z,6.70
2019-01-17T09:22:40.374Z,6.81
2019-01-17T09:23:40.368Z,6.81
2019-01-17T09:24:40.355Z,6.89
2019-01-17T09:25:40.366Z,6.80
2019-01-17T09:26:40.332Z,6.91
2019-01-17T09:27:40.333Z,7.02
2019-01-17T09:28:40.312Z,7.09
2019-01-17T09:29:40.305Z,7.05
2019-01-17T09:30:40.422Z,6.94
2019-01-17T09:31:40.287Z,6.77
2019-01-17T09:32:40.290Z,6.81
2019-01-17T09:33:40.262Z,6.85
2019-01-17T09:34:40.254Z,6.94
2019-01-17T09:35:40.255Z,6.92
2019-01-17T09:36:40.257Z,6.81
2019-01-17T09:37:40.223Z,6.89
2019-01-17T09:38:40.223Z,6.80
2019-01-17T09:39:40.203Z,6.85
2019-01-17T09:40:40.193Z,6.97
2019-01-17T09:41:40.200Z,6.94
2019-01-17T09:42:40.169Z,6.92
2019-01-17T09:43:40.160Z,6.98
2019-01-17T09:44:40.150Z,6.95
2019-01-17T09:45:40.148Z,6.95
2019-01-17T09:46:40.158Z,6.81
2019-01-17T09:47:40.126Z,6.79
2019-01-17T09:48:40.152Z,6.92
2019-01-17T09:49:40.097Z,6.89
2019-01-17T09:50:40.086Z,6.97
2019-01-17T09:51:40.113Z,6.95
2019-01-17T09:52:40.065Z,6.98
2019-01-17T09:53:40.068Z,6.88
2019-01-17T09:54:40.047Z,6.97
2019-01-17T09:55:40.041Z,6.91
2019-01-17T09:56:40.048Z,6.81
2019-01-17T09:57:40.020Z,6.87
2019-01-17T09:58:40.013Z,6.80
2019-01-17T09:59:39.994Z,6.77
2019-01-17T10:00:39.995Z,6.77
2019-01-17T10:01:39.999Z,6.80
2019-01-17T10:02:39.964Z,6.87
2019-01-17T10:03:39.964Z,6.85
2019-01-17T10:04:39.983Z,6.85
2019-01-17T10:05:39.970Z,6.77
2019-01-17T10:06:39.956Z,6.95
2019-01-17T10:07:39.918Z,6.87
2019-01-17T10:08:39.906Z,6.91
2019-01-17T10:09:39.903Z,6.87
2019-01-17T10:10:39.884Z,6.79
2019-01-17T10:11:39.924Z,6.79
2019-01-17T10:12:39.861Z,6.88
2019-01-17T10:13:39.863Z,6.80
2019-01-17T10:14:39.847Z,6.80
2019-01-17T10:15:39.831Z,6.85
2019-01-17T10:16:39.820Z,6.80
2019-01-17T10:17:39.835Z,6.84
2019-01-17T10:18:39.802Z,6.81
2019-01-17T10:19:39.792Z,6.94
2019-01-17T10:20:39.787Z,6.91
2019-01-17T10:21:39.774Z,6.95
2019-01-17T10:22:39.783Z,7.06
2019-01-17T10:23:39.746Z,7.09
2019-01-17T10:24:39.738Z,7.03
2019-01-17T10:25:39.729Z,7.12
2019-01-17T10:26:39.718Z,7.10
2019-01-17T10:27:39.745Z,7.16
2019-01-17T10:28:39.699Z,7.07
2019-01-17T10:29:39.691Z,7.09
2019-01-17T10:30:39.679Z,7.06
2019-01-17T10:31:39.672Z,7.12
2019-01-17T10:32:39.713Z,7.12
2019-01-17T10:33:39.655Z,7.12
2019-01-17T10:34:39.663Z,7.15
2019-01-17T10:35:39.639Z,7.17
2019-01-17T10:36:39.650Z,7.17
2019-01-17T10:37:39.610Z,7.25
2019-01-17T10:38:39.620Z,7.21
2019-01-17T10:39:39.589Z,7.27
2019-01-17T10:40:39.592Z,7.34
2019-01-17T10:41:39.568Z,7.28
2019-01-17T10:42:39.554Z,7.32
2019-01-17T10:43:39.572Z,7.31
2019-01-17T10:44:39.537Z,7.39
2019-01-17T10:45:39.543Z,7.39
2019-01-17T10:46:39.514Z,7.40
2019-01-17T10:47:39.504Z,7.37
2019-01-17T10:48:39.521Z,7.43
2019-01-17T10:49:39.524Z,7.39
2019-01-17T10:50:39.481Z,7.39
2019-01-17T10:51:39.467Z,7.35
2019-01-17T10:52:39.477Z,7.35
2019-01-17T10:53:39.490Z,7.39
2019-01-17T10:54:39.447Z,7.40
2019-01-17T10:55:39.429Z,7.46
2019-01-17T10:56:41.560Z,7.52
2019-01-17T10:57:39.412Z,7.52
2019-01-17T10:58:39.433Z,7.46
2019-01-17T10:59:39.391Z,7.46
2019-01-17T11:00:39.388Z,7.34
2019-01-17T11:01:39.362Z,7.43
2019-01-17T11:02:39.358Z,7.37
2019-01-17T11:03:39.410Z,7.39
2019-01-17T11:04:39.333Z,7.52
2019-01-17T11:05:39.320Z,7.49
2019-01-17T11:06:39.321Z,7.46
2019-01-17T11:07:39.318Z,7.57
2019-01-17T11:08:39.309Z,7.46
2019-01-17T11:09:39.309Z,7.50
2019-01-17T11:10:39.270Z,7.34
2019-01-17T11:11:39.270Z,7.43
2019-01-17T11:12:39.263Z,7.42
2019-01-17T11:13:39.243Z,7.37
2019-01-17T11:14:39.250Z,7.40
2019-01-17T11:15:39.219Z,7.42
2019-01-17T11:16:39.208Z,7.42
2019-01-17T11:17:39.200Z,7.53
2019-01-17T11:18:39.206Z,7.50
2019-01-17T11:19:39.211Z,7.60
2019-01-17T11:20:39.186Z,7.60
2019-01-17T11:21:39.162Z,7.50
2019-01-17T11:22:39.160Z,7.69
2019-01-17T11:23:39.141Z,7.69
2019-01-17T11:24:39.160Z,7.68
2019-01-17T11:25:39.134Z,7.69
2019-01-17T11:26:39.120Z,7.61
2019-01-17T11:27:39.100Z,7.50
2019-01-17T11:28:39.090Z,7.46
2019-01-17T11:29:39.141Z,7.35
2019-01-17T11:30:39.071Z,7.42
2019-01-17T11:31:39.060Z,7.40
2019-01-17T11:32:39.055Z,7.39
2019-01-17T11:33:39.039Z,7.31
2019-01-17T11:34:39.026Z,7.32
2019-01-17T11:35:39.037Z,7.24
2019-01-17T11:36:39.017Z,7.20
2019-01-17T11:37:39.003Z,7.17
2019-01-17T11:38:38.991Z,7.06
2019-01-17T11:39:38.976Z,7.10
2019-01-17T11:40:39.026Z,7.03
2019-01-17T11:41:38.958Z,6.92
2019-01-17T11:42:38.964Z,6.95
2019-01-17T11:43:38.941Z,6.92
2019-01-17T11:44:38.928Z,6.95
2019-01-17T11:45:38.935Z,6.88
2019-01-17T11:46:38.904Z,6.95
2019-01-17T11:47:38.895Z,6.88
2019-01-17T11:48:38.891Z,6.79
2019-01-17T11:49:38.874Z,6.80
2019-01-17T11:50:38.905Z,6.81
2019-01-17T11:51:38.854Z,6.87
2019-01-17T11:52:38.843Z,6.94
2019-01-17T11:53:38.834Z,6.92
2019-01-17T11:54:38.827Z,7.02
2019-01-17T11:55:38.832Z,7.06
2019-01-17T11:56:40.985Z,7.09
2019-01-17T11:57:38.796Z,6.98
2019-01-17T11:58:38.810Z,6.99
2019-01-17T11:59:38.782Z,6.94
2019-01-17T12:00:38.812Z,6.95
2019-01-17T12:01:38.756Z,6.95
2019-01-17T12:02:39.231Z,6.91
2019-01-17T12:03:38.733Z,7.02
2019-01-17T12:04:38.732Z,6.94
2019-01-17T12:05:38.718Z,6.97
2019-01-17T12:06:38.719Z,6.94
2019-01-17T12:07:38.696Z,7.07
2019-01-17T12:08:38.684Z,7.05
2019-01-17T12:09:38.710Z,7.12
2019-01-17T12:10:38.660Z,7.07
2019-01-17T12:11:38.677Z,7.06
2019-01-17T12:12:38.664Z,7.05
2019-01-17T12:13:38.634Z,7.05
2019-01-17T12:14:38.623Z,7.05
2019-01-17T12:15:38.614Z,7.07
2019-01-17T12:16:38.638Z,7.02
2019-01-17T12:17:38.588Z,6.94
2019-01-17T12:18:38.585Z,6.91
2019-01-17T12:19:38.568Z,6.94
2019-01-17T12:20:38.559Z,6.94
2019-01-17T12:21:38.573Z,6.79
2019-01-17T12:22:38.541Z,6.73
2019-01-17T12:23:38.528Z,6.70
2019-01-17T12:24:38.516Z,6.76
2019-01-17T12:25:38.510Z,6.67
2019-01-17T12:26:38.530Z,6.73
2019-01-17T12:27:42.527Z,6.62
2019-01-17T12:28:38.506Z,6.56
2019-01-17T12:29:38.468Z,6.62
2019-01-17T12:30:38.471Z,6.49
2019-01-17T12:31:38.469Z,6.49
2019-01-17T12:32:38.439Z,6.36
2019-01-17T12:33:38.433Z,6.28
2019-01-17T12:34:38.417Z,6.25
2019-01-17T12:35:38.415Z,6.22
2019-01-17T12:36:38.413Z,6.14
2019-01-17T12:37:38.387Z,6.15
2019-01-17T12:38:38.382Z,6.06
2019-01-17T12:39:38.365Z,6.03
2019-01-17T12:40:38.355Z,6.01
2019-01-17T12:41:38.379Z,5.85
2019-01-17T12:42:38.334Z,5.94
2019-01-17T12:43:38.326Z,5.81
2019-01-17T12:44:38.331Z,5.81
2019-01-17T12:45:38.305Z,5.74
2019-01-17T12:46:38.325Z,5.67
2019-01-17T12:47:38.292Z,5.64
2019-01-17T12:48:38.272Z,5.64
2019-01-17T12:49:38.265Z,5.53
2019-01-17T12:50:38.253Z,5.51
2019-01-17T12:51:38.242Z,5.56
2019-01-17T12:52:38.262Z,5.51
2019-01-17T12:53:38.227Z,5.54
2019-01-17T12:54:38.211Z,5.49
2019-01-17T12:55:38.269Z,5.61
2019-01-17T12:56:38.192Z,5.46
2019-01-17T12:57:38.204Z,5.36
2019-01-17T12:58:38.175Z,5.46
2019-01-17T12:59:38.361Z,5.40
2019-01-17T13:00:38.184Z,5.49
2019-01-17T13:01:38.142Z,5.63
2019-01-17T13:02:38.157Z,5.57
2019-01-17T13:03:38.119Z,5.58
2019-01-17T13:04:38.120Z,5.61
2019-01-17T13:05:38.097Z,5.58
2019-01-17T13:06:38.119Z,5.49
2019-01-17T13:07:38.099Z,5.48
2019-01-17T13:08:38.072Z,5.46
2019-01-17T13:09:38.078Z,5.49
2019-01-17T13:10:38.055Z,5.49
2019-01-17T13:11:38.037Z,5.39
2019-01-17T13:12:38.050Z,5.45
2019-01-17T13:13:38.018Z,5.39
2019-01-17T13:14:38.011Z,5.33
2019-01-17T13:15:37.994Z,5.35
2019-01-17T13:16:37.993Z,5.42
2019-01-17T13:17:38.023Z,5.28
2019-01-17T13:18:37.966Z,5.38
2019-01-17T13:19:37.970Z,5.42
2019-01-17T13:20:37.943Z,5.38
2019-01-17T13:21:37.947Z,5.43
2019-01-17T13:22:37.954Z,5.39
2019-01-17T13:23:37.915Z,5.40
2019-01-17T13:24:37.906Z,5.39
2019-01-17T13:25:37.894Z,5.48
2019-01-17T13:26:37.882Z,5.46
2019-01-17T13:27:37.885Z,5.49
2019-01-17T13:28:37.885Z,5.39
2019-01-17T13:29:37.881Z,5.42
2019-01-17T13:30:37.845Z,5.48
2019-01-17T13:31:37.832Z,5.46
2019-01-17T13:32:37.837Z,5.49
2019-01-17T13:33:37.836Z,5.58
2019-01-17T13:34:37.807Z,5.48
2019-01-17T13:35:37.794Z,5.51
2019-01-17T13:36:40.529Z,5.51
2019-01-17T13:37:37.770Z,5.53
2019-01-17T13:38:37.797Z,5.64
2019-01-17T13:39:37.751Z,5.63
2019-01-17T13:40:37.743Z,5.63
2019-01-17T13:41:37.731Z,5.67
2019-01-17T13:42:37.725Z,5.64
2019-01-17T13:43:37.726Z,5.65
2019-01-17T13:44:37.699Z,5.53
2019-01-17T13:45:37.688Z,5.65
2019-01-17T13:46:37.690Z,5.72
2019-01-17T13:47:37.674Z,5.60
2019-01-17T13:48:37.766Z,5.60
2019-01-17T13:49:37.650Z,5.56
2019-01-17T13:50:37.636Z,5.61
2019-01-17T13:51:37.627Z,5.53
2019-01-17T13:52:37.624Z,5.49
2019-01-17T13:53:37.629Z,5.48
2019-01-17T13:54:37.627Z,5.48
2019-01-17T13:55:37.597Z,5.61
2019-01-17T13:56:37.577Z,5.63
2019-01-17T13:57:37.573Z,5.63
2019-01-17T13:58:37.577Z,5.58
2019-01-17T13:59:37.570Z,5.61
2019-01-17T14:00:37.535Z,5.63
2019-01-17T14:01:37.526Z,5.63
2019-01-17T14:02:37.516Z,5.65
2019-01-17T14:03:37.506Z,5.60
2019-01-17T14:04:37.553Z,5.63
2019-01-17T14:05:37.500Z,5.67
2019-01-17T14:06:37.484Z,5.67
2019-01-17T14:07:37.464Z,5.72
2019-01-17T14:08:37.459Z,5.67
2019-01-17T14:09:37.472Z,5.74
2019-01-17T14:10:37.446Z,5.74
2019-01-17T14:11:37.424Z,5.75
2019-01-17T14:12:37.429Z,5.82
2019-01-17T14:13:37.415Z,5.85
2019-01-17T14:14:37.462Z,5.83
2019-01-17T14:15:37.384Z,5.91
2019-01-17T14:16:37.424Z,5.82
2019-01-17T14:17:37.413Z,5.83
2019-01-17T14:18:37.354Z,5.76
2019-01-17T14:19:37.345Z,5.74
2019-01-17T14:20:37.400Z,5.76
2019-01-17T14:21:37.319Z,5.74
2019-01-17T14:22:37.321Z,5.76
2019-01-17T14:23:37.311Z,5.74
2019-01-17T14:24:37.292Z,5.74
2019-01-17T14:25:37.300Z,5.79
2019-01-17T14:26:37.269Z,5.79
2019-01-17T14:27:37.271Z,5.76
2019-01-17T14:28:37.252Z,5.65
2019-01-17T14:29:37.239Z,5.58
2019-01-17T14:30:37.247Z,5.60
2019-01-17T14:31:37.228Z,5.61
2019-01-17T14:32:37.212Z,5.56
2019-01-17T14:33:37.206Z,5.63
2019-01-17T14:34:37.190Z,5.61
2019-01-17T14:35:37.196Z,5.60
2019-01-17T14:36:37.201Z,5.63
2019-01-17T14:37:37.165Z,5.60
2019-01-17T14:38:37.152Z,5.60
2019-01-17T14:39:37.137Z,5.64
2019-01-17T14:40:37.161Z,5.67
2019-01-17T14:41:37.114Z,5.64
2019-01-17T14:42:37.106Z,5.65
2019-01-17T14:43:37.104Z,5.64
2019-01-17T14:44:37.127Z,5.68
2019-01-17T14:45:37.105Z,5.67
2019-01-17T14:46:37.074Z,5.71
2019-01-17T14:47:37.052Z,5.67
2019-01-17T14:48:37.045Z,5.61
2019-01-17T14:49:37.051Z,5.58
2019-01-17T14:50:37.022Z,5.56
2019-01-17T14:51:37.038Z,5.64
2019-01-17T14:52:37.010Z,5.58
2019-01-17T14:53:37.010Z,5.54
2019-01-17T14:54:36.987Z,5.49
2019-01-17T14:55:36.975Z,5.49
2019-01-17T14:56:36.984Z,5.46
2019-01-17T14:57:36.950Z,5.51
2019-01-17T14:58:36.942Z,5.39
2019-01-17T14:59:36.936Z,5.36
2019-01-17T15:00:36.924Z,5.38
2019-01-17T15:01:36.933Z,5.39
2019-01-17T15:02:36.899Z,5.43
2019-01-17T15:03:36.887Z,5.30
2019-01-17T15:04:36.877Z,5.35
2019-01-17T15:05:36.876Z,5.30
2019-01-17T15:06:36.882Z,5.30
2019-01-17T15:07:36.844Z,5.22
2019-01-17T15:08:36.857Z,5.33
2019-01-17T15:09:36.829Z,5.33
2019-01-17T15:10:36.818Z,5.31
2019-01-17T15:11:36.849Z,5.30
2019-01-17T15:12:36.795Z,5.35
2019-01-17T15:13:36.792Z,5.40
2019-01-17T15:14:36.776Z,5.35
2019-01-17T15:15:36.763Z,5.27
2019-01-17T15:16:36.768Z,5.35
2019-01-17T15:17:36.761Z,5.30
2019-01-17T15:18:36.742Z,5.36
2019-01-17T15:19:36.723Z,5.31
2019-01-17T15:20:36.728Z,5.40
2019-01-17T15:21:36.700Z,5.42
2019-01-17T15:22:36.713Z,5.33
2019-01-17T15:23:36.695Z,5.35
2019-01-17T15:24:36.678Z,5.39
2019-01-17T15:25:36.675Z,5.28
2019-01-17T15:26:36.652Z,5.33
2019-01-17T15:27:36.660Z,5.30
2019-01-17T15:28:36.629Z,5.33
2019-01-17T15:29:36.637Z,5.33
2019-01-17T15:30:36.611Z,5.33
2019-01-17T15:31:36.603Z,5.38
2019-01-17T15:32:36.604Z,5.31
2019-01-17T15:33:36.586Z,5.24
2019-01-17T15:34:36.564Z,5.28
2019-01-17T15:35:36.559Z,5.20
2019-01-17T15:36:36.556Z,5.21
2019-01-17T15:37:36.554Z,5.22
2019-01-17T15:38:36.527Z,5.07
2019-01-17T15:39:36.511Z,5.06
2019-01-17T15:40:36.524Z,4.97
2019-01-17T15:41:36.500Z,5.03
2019-01-17T15:42:36.518Z,5.07
2019-01-17T15:43:36.475Z,5.10
2019-01-17T15:44:36.464Z,5.04
2019-01-17T15:45:36.451Z,4.96
2019-01-17T15:46:36.442Z,4.97
2019-01-17T15:47:36.426Z,4.99
2019-01-17T15:48:36.441Z,5.00
2019-01-17T15:49:36.418Z,4.97
2019-01-17T15:50:36.402Z,4.99
2019-01-17T15:51:36.387Z,4.85
2019-01-17T15:52:36.381Z,4.80
2019-01-17T15:53:36.388Z,4.70
2019-01-17T15:54:36.353Z,4.75
2019-01-17T15:55:36.357Z,4.69
2019-01-17T15:56:36.344Z,4.73
2019-01-17T15:57:36.325Z,4.75
2019-01-17T15:58:36.338Z,4.75
2019-01-17T15:59:36.308Z,4.82
2019-01-17T16:00:36.294Z,4.84
2019-01-17T16:01:36.283Z,4.82
2019-01-17T16:02:36.275Z,4.92
2019-01-17T16:03:36.278Z,4.84
2019-01-17T16:04:36.252Z,4.73
2019-01-17T16:20:23.452Z,4.67
2019-01-17T16:21:23.417Z,4.65
2019-01-17T16:22:24.217Z,4.59
2019-01-17T16:23:23.394Z,4.54
2019-01-17T16:24:23.405Z,4.62
2019-01-17T16:25:23.383Z,4.62
2019-01-17T16:26:23.365Z,4.52
2019-01-17T16:27:23.353Z,4.52
2019-01-17T16:28:23.342Z,4.47
2019-01-17T16:29:23.360Z,4.34
2019-01-17T16:30:23.325Z,4.41
2019-01-17T16:31:23.342Z,4.32
2019-01-17T16:32:23.303Z,4.27
2019-01-17T16:33:23.292Z,4.30
2019-01-17T16:34:23.297Z,4.33
2019-01-17T16:35:23.306Z,4.24
2019-01-17T16:36:23.305Z,4.37
2019-01-17T16:37:23.284Z,4.33
2019-01-17T16:38:23.243Z,4.42
2019-01-17T16:39:23.268Z,4.42
2019-01-17T16:40:23.226Z,4.47
2019-01-17T16:41:23.220Z,4.41
2019-01-17T16:42:23.196Z,4.40
2019-01-17T16:43:23.191Z,4.51
2019-01-17T16:44:23.201Z,4.42
2019-01-17T16:45:23.169Z,4.42
2019-01-17T16:46:23.167Z,4.40
2019-01-17T16:47:23.257Z,4.45
2019-01-17T16:48:23.133Z,4.47
2019-01-17T16:49:23.148Z,4.40
2019-01-17T16:50:23.120Z,4.32
2019-01-17T16:51:23.110Z,4.44
2019-01-17T16:52:23.094Z,4.27
2019-01-17T16:53:23.081Z,4.24
2019-01-17T16:54:23.069Z,4.26
2019-01-17T16:55:23.074Z,4.26
2019-01-17T16:56:23.047Z,4.20
2019-01-17T16:57:23.040Z,4.22
2019-01-17T16:58:23.043Z,4.22
2019-01-17T16:59:23.018Z,4.14
2019-01-17T17:00:23.029Z,4.18
2019-01-17T17:01:23.007Z,4.11
2019-01-17T17:02:22.987Z,4.08
2019-01-17T17:03:22.990Z,4.14
2019-01-17T17:04:22.965Z,4.09
2019-01-17T17:05:22.975Z,4.18
2019-01-17T17:06:22.944Z,4.11
2019-01-17T17:07:22.938Z,3.91
2019-01-17T17:08:22.970Z,3.98
2019-01-17T17:09:22.910Z,3.98
2019-01-17T17:10:22.919Z,3.97
2019-01-17T17:11:22.889Z,3.84
2019-01-17T17:12:22.884Z,3.86
2019-01-17T17:13:22.872Z,3.83
2019-01-17T17:14:22.861Z,3.86
2019-01-17T17:15:22.864Z,3.80
2019-01-17T17:16:22.836Z,3.94
2019-01-17T17:17:22.825Z,3.98
2019-01-17T17:18:22.825Z,3.87
2019-01-17T17:19:22.820Z,3.78
2019-01-17T17:20:29.884Z,3.79
2019-01-17T17:21:22.784Z,3.84
2019-01-17T17:22:22.772Z,3.86
2019-01-17T17:23:22.764Z,3.79
2019-01-17T17:24:22.753Z,3.98
2019-01-17T17:25:22.767Z,3.96
2019-01-17T17:26:22.731Z,3.86
2019-01-17T17:27:22.721Z,3.84
2019-01-17T17:28:22.718Z,3.80
2019-01-17T17:29:22.709Z,3.87
2019-01-17T17:30:22.690Z,3.93
2019-01-17T17:31:22.705Z,3.98
2019-01-17T17:32:22.665Z,3.94
2019-01-17T17:33:22.667Z,3.97
2019-01-17T17:34:22.652Z,4.09
2019-01-17T17:35:22.636Z,3.94
2019-01-17T17:36:22.643Z,4.02
2019-01-17T17:37:22.623Z,3.93
2019-01-17T17:38:22.606Z,4.02
2019-01-17T17:39:22.600Z,3.97
2019-01-17T17:40:22.599Z,3.97
2019-01-17T17:41:22.587Z,3.97
2019-01-17T17:42:22.566Z,3.97
2019-01-17T17:43:22.551Z,3.96
2019-01-17T17:44:22.543Z,3.98
2019-01-17T17:45:22.531Z,3.96
2019-01-17T17:46:22.535Z,3.93
2019-01-17T17:47:22.521Z,4.06
2019-01-17T17:48:22.503Z,4.08
2019-01-17T17:49:22.489Z,3.96
2019-01-17T17:50:22.487Z,3.98
2019-01-17T17:51:22.483Z,4.05
2019-01-17T17:52:22.456Z,4.06
2019-01-17T17:53:22.458Z,4.09
2019-01-17T17:54:22.436Z,4.12
2019-01-17T17:55:22.432Z,4.15
2019-01-17T17:56:22.433Z,4.18
2019-01-17T17:57:22.403Z,4.20
2019-01-17T17:58:22.391Z,4.16
2019-01-17T17:59:22.385Z,4.18
2019-01-17T18:00:22.372Z,4.18
2019-01-17T18:01:22.378Z,4.15
2019-01-17T18:02:22.359Z,4.24
2019-01-17T18:03:22.341Z,4.22
2019-01-17T18:04:22.334Z,4.20
2019-01-17T18:05:22.319Z,4.09
2019-01-17T18:06:22.335Z,4.08
2019-01-17T18:07:22.298Z,4.09
2019-01-17T18:08:22.289Z,4.06
2019-01-17T18:09:22.276Z,4.06
2019-01-17T18:10:22.278Z,4.04
2019-01-17T18:11:22.257Z,4.09
2019-01-17T18:12:22.261Z,4.08
2019-01-17T18:13:22.238Z,4.11
2019-01-17T18:14:22.224Z,4.08
2019-01-17T18:15:22.214Z,4.06
2019-01-17T18:16:22.202Z,3.93
2019-01-17T18:17:22.218Z,3.96
2019-01-17T18:18:22.182Z,4.08
2019-01-17T18:19:22.170Z,4.05
2019-01-17T18:20:22.159Z,4.12
2019-01-17T18:21:22.150Z,4.08
2019-01-17T18:22:22.157Z,4.00
2019-01-17T18:23:22.129Z,4.14
2019-01-17T18:24:22.122Z,4.15
2019-01-17T18:25:22.120Z,4.09
2019-01-17T18:26:22.098Z,4.06
2019-01-17T18:27:22.102Z,4.05
2019-01-17T18:28:22.077Z,4.08
2019-01-17T18:29:22.069Z,4.14
2019-01-17T18:30:22.057Z,4.18
2019-01-17T18:31:22.051Z,4.24
2019-01-17T18:32:22.057Z,4.20
2019-01-17T18:33:22.038Z,4.16
2019-01-17T18:34:22.012Z,4.20
2019-01-17T18:35:22.000Z,4.16
2019-01-17T18:36:21.993Z,4.27
2019-01-17T18:37:21.999Z,4.27
2019-01-17T18:38:21.970Z,4.16
2019-01-17T18:39:21.959Z,4.22
2019-01-17T18:40:21.960Z,4.12
2019-01-17T18:41:21.938Z,4.18
2019-01-17T18:42:21.960Z,4.16
2019-01-17T18:43:21.925Z,4.23
2019-01-17T18:44:21.910Z,4.23
2019-01-17T18:45:21.916Z,4.15
2019-01-17T18:46:21.900Z,4.24
2019-01-17T18:47:21.875Z,4.14
2019-01-17T18:48:21.902Z,4.16
2019-01-17T18:49:21.860Z,4.20
2019-01-17T18:50:21.879Z,4.24
2019-01-17T18:51:21.832Z,4.26
2019-01-17T18:52:21.843Z,4.30
2019-01-17T18:53:21.829Z,4.26
2019-01-17T18:54:21.802Z,4.22
2019-01-17T18:55:21.794Z,4.20
2019-01-17T18:56:21.810Z,4.14
2019-01-17T18:57:21.775Z,4.18
2019-01-17T18:58:21.799Z,4.15
2019-01-17T18:59:21.785Z,4.14
2019-01-17T19:00:21.766Z,4.09
2019-01-17T19:01:21.831Z,4.14
2019-01-17T19:02:21.752Z,4.04
2019-01-17T19:03:21.741Z,3.91
2019-01-17T19:04:21.717Z,4.00
2019-01-17T19:05:21.690Z,3.88
2019-01-17T19:06:21.674Z,3.80
2019-01-17T19:07:21.668Z,3.84
2019-01-17T19:08:21.713Z,3.69
2019-01-17T19:09:21.654Z,3.58
2019-01-17T19:10:21.649Z,3.58
2019-01-17T19:11:21.625Z,3.60
2019-01-17T19:12:21.617Z,3.68
2019-01-17T19:13:21.609Z,3.62
2019-01-17T19:14:21.619Z,3.65
2019-01-17T19:15:21.579Z,3.60
2019-01-17T19:16:21.575Z,3.66
2019-01-17T19:17:21.557Z,3.62
2019-01-17T19:18:21.562Z,3.55
2019-01-17T19:19:21.556Z,3.54
2019-01-17T19:20:21.545Z,3.54
2019-01-17T19:21:21.522Z,3.52
2019-01-17T19:22:21.515Z,3.51
2019-01-17T19:23:21.518Z,3.50
2019-01-17T19:24:21.513Z,3.51
2019-01-17T19:25:21.496Z,3.45
2019-01-17T19:26:21.493Z,3.36
2019-01-17T19:27:21.492Z,3.26
2019-01-17T19:28:22.403Z,3.21
2019-01-17T19:29:21.447Z,3.24
2019-01-17T19:30:21.443Z,3.23
2019-01-17T19:31:21.440Z,3.20
2019-01-17T19:32:21.419Z,3.28
2019-01-17T19:33:21.405Z,3.20
2019-01-17T19:34:21.392Z,3.26
2019-01-17T19:35:21.399Z,3.23
2019-01-17T19:36:21.362Z,3.11
2019-01-17T19:37:21.348Z,3.10
2019-01-17T19:38:21.348Z,3.08
2019-01-17T19:39:21.345Z,3.10
2019-01-17T19:40:21.323Z,3.08
2019-01-17T19:41:21.312Z,3.15
2019-01-17T19:42:21.306Z,3.03
2019-01-17T19:43:21.298Z,3.08
2019-01-17T19:44:21.306Z,3.13
2019-01-17T19:45:21.267Z,3.06
2019-01-17T19:46:21.266Z,3.11
2019-01-17T19:47:21.270Z,3.06
2019-01-17T19:48:21.260Z,3.05
2019-01-17T19:49:21.257Z,3.03
2019-01-17T19:50:21.213Z,3.06
2019-01-17T19:51:21.200Z,3.06
2019-01-17T19:52:21.200Z,3.05
2019-01-17T19:53:21.198Z,3.06
2019-01-17T19:54:21.224Z,2.90
2019-01-17T19:55:21.184Z,2.95
2019-01-17T19:56:21.160Z,2.96
2019-01-17T19:57:21.134Z,2.89
2019-01-17T19:58:21.138Z,2.78
2019-01-17T19:59:21.428Z,2.82
2019-01-17T20:00:21.141Z,2.81
2019-01-17T20:01:21.101Z,2.79
2019-01-17T20:02:21.090Z,2.84
2019-01-17T20:03:21.072Z,2.92
2019-01-17T20:04:21.061Z,2.82
2019-01-17T20:05:21.085Z,2.84
2019-01-17T20:06:21.120Z,2.95
2019-01-17T20:07:21.037Z,2.96
2019-01-17T20:08:21.028Z,2.97
2019-01-17T20:09:21.025Z,2.99
2019-01-17T20:10:21.015Z,2.97
2019-01-17T20:11:21.007Z,3.02
2019-01-17T20:12:21.013Z,3.10
2019-01-17T20:13:21.001Z,3.14
2019-01-17T20:14:20.962Z,3.13
2019-01-17T20:15:21.369Z,2.96
2019-01-17T20:16:20.944Z,2.95
2019-01-17T20:17:20.927Z,2.96
2019-01-17T20:18:20.931Z,3.14
2019-01-17T20:19:20.925Z,3.00
2019-01-17T20:20:20.963Z,2.96